createdAt,value
2023-03-26T00:01:29.747Z,12.90
2023-03-26T00:03:57.988Z,12.90
2023-03-26T00:06:31.031Z,12.80
2023-03-26T00:08:58.855Z,12.80
2023-03-26T00:11:28.415Z,12.80
2023-03-26T00:13:59.058Z,12.80
2023-03-26T00:16:28.771Z,12.70
2023-03-26T00:18:57.535Z,12.70
2023-03-26T00:21:29.210Z,12.70
2023-03-26T00:24:04.392Z,12.70
2023-03-26T00:26:33.519Z,12.70
2023-03-26T00:29:00.662Z,12.60
2023-03-26T00:31:27.866Z,12.60
2023-03-26T00:33:55.680Z,12.60
2023-03-26T00:36:25.550Z,12.60
2023-03-26T00:38:53.893Z,12.60
2023-03-26T00:41:30.981Z,12.60
2023-03-26T00:43:59.868Z,12.70
2023-03-26T00:46:31.321Z,12.70
2023-03-26T00:49:03.640Z,12.70
2023-03-26T00:51:30.794Z,12.70
2023-03-26T00:53:57.972Z,12.70
2023-03-26T00:56:25.136Z,12.70
2023-03-26T00:58:51.950Z,12.80
2023-03-26T01:01:30.293Z,12.80
2023-03-26T01:04:08.094Z,12.80
2023-03-26T01:06:39.368Z,12.90
2023-03-26T01:09:18.728Z,13.00
2023-03-26T01:11:47.505Z,12.90
2023-03-26T01:14:14.177Z,13.00
2023-03-26T01:16:50.065Z,13.00
2023-03-26T01:19:33.799Z,13.00
2023-03-26T01:22:00.697Z,13.00
2023-03-26T01:24:27.714Z,13.00
2023-03-26T01:27:19.165Z,13.00
2023-03-26T01:29:52.474Z,12.90
2023-03-26T01:32:44.920Z,13.00
2023-03-26T01:35:25.006Z,13.00
2023-03-26T01:38:00.462Z,13.10
2023-03-26T01:40:54.980Z,13.10
2023-03-26T01:43:45.856Z,13.10
2023-03-26T01:46:15.843Z,13.10
2023-03-26T01:48:44.812Z,13.10
2023-03-26T01:51:13.190Z,13.10
2023-03-26T01:53:46.969Z,13.10
2023-03-26T01:56:26.373Z,13.20
2023-03-26T01:58:56.209Z,13.10
2023-03-26T02:01:30.998Z,13.10
2023-03-26T02:04:21.950Z,13.10
2023-03-26T02:07:06.824Z,13.10
2023-03-26T02:09:42.144Z,13.10
2023-03-26T02:12:10.132Z,13.10
2023-03-26T02:14:36.922Z,13.20
2023-03-26T02:17:03.791Z,13.20
2023-03-26T02:19:30.717Z,13.20
2023-03-26T02:22:00.519Z,13.20
2023-03-26T02:24:29.451Z,13.30
2023-03-26T02:26:58.149Z,13.30
2023-03-26T02:29:26.890Z,13.40
2023-03-26T02:31:54.575Z,13.40
2023-03-26T02:34:21.746Z,13.50
2023-03-26T02:36:51.072Z,13.50
2023-03-26T02:39:18.475Z,13.50
2023-03-26T02:41:52.897Z,13.50
2023-03-26T02:44:19.925Z,13.50
2023-03-26T02:47:06.925Z,13.50
2023-03-26T02:49:51.993Z,13.50
2023-03-26T02:52:25.325Z,13.50
2023-03-26T02:54:54.118Z,13.50
2023-03-26T02:57:24.104Z,13.50
2023-03-26T03:00:14.948Z,13.60
2023-03-26T03:02:48.496Z,13.60
2023-03-26T03:05:31.986Z,13.60
2023-03-26T03:08:18.570Z,13.60
2023-03-26T03:11:24.514Z,13.60
2023-03-26T03:13:53.000Z,13.60
2023-03-26T03:16:25.633Z,13.60
2023-03-26T03:18:58.152Z,13.60
2023-03-26T03:21:30.864Z,13.60
2023-03-26T03:24:00.098Z,13.60
2023-03-26T03:26:29.739Z,13.60
2023-03-26T03:28:58.535Z,13.70
2023-03-26T03:31:26.664Z,13.70
2023-03-26T03:33:58.342Z,13.70
2023-03-26T03:36:33.039Z,13.70
2023-03-26T03:39:06.902Z,13.70
2023-03-26T03:41:35.059Z,13.70
2023-03-26T03:44:04.656Z,13.70
2023-03-26T03:46:32.867Z,13.70
2023-03-26T03:48:59.815Z,13.70
2023-03-26T03:51:32.538Z,13.70
2023-03-26T03:54:03.262Z,13.60
2023-03-26T03:57:02.211Z,13.60
2023-03-26T03:59:34.991Z,13.70
2023-03-26T04:02:05.035Z,13.70
2023-03-26T04:04:38.463Z,13.70
2023-03-26T04:07:08.638Z,13.70
2023-03-26T04:10:04.162Z,13.70
2023-03-26T04:12:51.429Z,13.70
2023-03-26T04:15:21.161Z,13.70
2023-03-26T04:17:48.354Z,13.70
2023-03-26T04:20:17.273Z,13.80
2023-03-26T04:22:46.842Z,13.80
2023-03-26T04:25:17.605Z,13.90
2023-03-26T04:27:51.432Z,13.80
2023-03-26T04:30:29.519Z,13.90
2023-03-26T04:33:20.876Z,13.90
2023-03-26T04:35:48.469Z,13.90
2023-03-26T04:38:17.504Z,13.90
2023-03-26T04:40:47.673Z,13.90
2023-03-26T04:43:17.991Z,13.90
2023-03-26T04:46:04.949Z,13.90
2023-03-26T04:48:40.976Z,13.90
2023-03-26T04:51:18.222Z,13.80
2023-03-26T04:53:52.766Z,13.90
2023-03-26T04:56:41.092Z,13.90
2023-03-26T04:59:30.367Z,13.90
2023-03-26T05:02:00.007Z,14.00
2023-03-26T05:04:34.551Z,13.90
2023-03-26T05:07:02.177Z,13.90
2023-03-26T05:09:41.804Z,13.90
2023-03-26T05:12:12.387Z,14.00
2023-03-26T05:14:50.996Z,13.90
2023-03-26T05:17:30.738Z,13.90
2023-03-26T05:19:58.330Z,13.90
2023-03-26T05:22:25.707Z,13.80
2023-03-26T05:25:11.745Z,13.80
2023-03-26T05:27:39.097Z,13.80
2023-03-26T05:30:07.381Z,13.70
2023-03-26T05:32:42.198Z,13.70
2023-03-26T05:35:12.650Z,13.70
2023-03-26T05:37:39.986Z,13.70
2023-03-26T05:40:15.735Z,13.70
2023-03-26T05:43:08.540Z,13.60
2023-03-26T05:45:48.150Z,13.70
2023-03-26T05:48:28.222Z,13.70
2023-03-26T05:50:57.368Z,13.70
2023-03-26T05:53:27.803Z,13.60
2023-03-26T05:56:13.235Z,13.60
2023-03-26T05:58:58.527Z,13.60
2023-03-26T06:01:47.227Z,13.60
2023-03-26T06:04:46.248Z,13.60
2023-03-26T06:07:39.202Z,13.60
2023-03-26T06:10:10.637Z,13.60
2023-03-26T06:12:45.176Z,13.60
2023-03-26T06:15:12.457Z,13.60
2023-03-26T06:17:57.979Z,13.60
2023-03-26T06:20:47.272Z,13.60
2023-03-26T06:23:25.195Z,13.70
2023-03-26T06:26:05.493Z,13.70
2023-03-26T06:28:51.243Z,13.70
2023-03-26T06:31:38.296Z,13.70
2023-03-26T06:34:20.225Z,13.70
2023-03-26T06:36:48.705Z,13.70
2023-03-26T06:39:16.136Z,13.70
2023-03-26T06:41:52.176Z,13.70
2023-03-26T06:44:36.441Z,13.70
2023-03-26T06:47:21.692Z,13.70
2023-03-26T06:50:07.617Z,13.70
2023-03-26T06:52:55.735Z,13.70
2023-03-26T06:55:35.840Z,13.70
2023-03-26T06:58:25.125Z,13.80
2023-03-26T07:01:10.860Z,13.80
2023-03-26T07:03:56.139Z,13.80
2023-03-26T07:06:45.919Z,13.70
2023-03-26T07:09:31.249Z,13.70
2023-03-26T07:12:10.325Z,13.70
2023-03-26T07:15:01.576Z,13.80
2023-03-26T07:17:48.636Z,13.80
2023-03-26T07:20:21.794Z,13.90
2023-03-26T07:22:49.443Z,13.90
2023-03-26T07:25:42.418Z,14.00
2023-03-26T07:28:39.436Z,14.10
2023-03-26T07:31:45.935Z,14.10
2023-03-26T07:34:43.207Z,14.20
2023-03-26T07:37:41.876Z,14.20
2023-03-26T07:40:36.299Z,14.40
2023-03-26T07:43:41.787Z,14.50
2023-03-26T07:46:12.743Z,14.50
2023-03-26T07:48:51.784Z,14.50
2023-03-26T07:51:33.168Z,14.50
2023-03-26T07:54:35.771Z,14.50
2023-03-26T07:57:20.951Z,14.40
2023-03-26T08:00:22.013Z,14.50
2023-03-26T08:03:16.123Z,14.60
2023-03-26T08:06:12.059Z,14.60
2023-03-26T08:09:05.934Z,14.60
2023-03-26T08:11:59.800Z,14.50
2023-03-26T08:14:33.361Z,14.50
2023-03-26T08:17:19.793Z,14.60
2023-03-26T08:20:34.378Z,14.50
2023-03-26T08:23:27.557Z,14.60
2023-03-26T08:26:12.712Z,14.60
2023-03-26T08:28:57.497Z,14.60
2023-03-26T08:31:33.178Z,14.60
2023-03-26T08:34:00.522Z,14.60
2023-03-26T08:36:27.764Z,14.50
2023-03-26T08:38:54.567Z,14.50
2023-03-26T08:41:48.656Z,14.50
2023-03-26T08:44:33.627Z,14.40
2023-03-26T08:47:32.201Z,14.50
2023-03-26T08:50:22.089Z,14.50
2023-03-26T08:53:11.757Z,14.50
2023-03-26T08:55:57.124Z,14.50
2023-03-26T08:58:42.882Z,14.50
2023-03-26T09:01:35.297Z,14.50
2023-03-26T09:04:32.726Z,14.30
2023-03-26T09:07:29.719Z,14.20
2023-03-26T09:10:33.791Z,14.20
2023-03-26T09:13:09.367Z,14.20
2023-03-26T09:15:51.203Z,14.20
2023-03-26T09:18:30.410Z,14.20
2023-03-26T09:21:12.232Z,14.20
2023-03-26T09:23:57.718Z,14.10
2023-03-26T09:26:26.015Z,14.10
2023-03-26T09:29:32.317Z,14.00
2023-03-26T09:32:27.022Z,13.90
2023-03-26T09:35:15.705Z,13.80
2023-03-26T09:38:02.072Z,13.70
2023-03-26T09:40:42.458Z,13.70
2023-03-26T09:43:51.366Z,13.60
2023-03-26T09:46:23.884Z,13.60
2023-03-26T09:49:20.967Z,13.50
2023-03-26T09:51:56.734Z,13.50
2023-03-26T09:54:39.185Z,13.60
2023-03-26T09:57:38.340Z,13.70
2023-03-26T10:00:23.204Z,13.70
2023-03-26T10:03:15.593Z,13.70
2023-03-26T10:05:54.122Z,13.70
2023-03-26T10:08:48.216Z,13.60
2023-03-26T10:11:25.190Z,13.60
2023-03-26T10:14:26.983Z,13.60
2023-03-26T10:17:31.986Z,13.60
2023-03-26T10:20:17.717Z,13.60
2023-03-26T10:22:59.846Z,13.60
2023-03-26T10:25:46.692Z,13.50
2023-03-26T10:28:59.479Z,13.40
2023-03-26T10:31:40.802Z,13.40
2023-03-26T10:34:31.492Z,13.30
2023-03-26T10:37:10.405Z,13.20
2023-03-26T10:40:05.848Z,13.10
2023-03-26T10:43:13.345Z,13.20
2023-03-26T10:46:15.868Z,13.30
2023-03-26T10:49:15.577Z,13.20
2023-03-26T10:51:55.858Z,13.10
2023-03-26T10:54:35.522Z,13.10
2023-03-26T10:57:34.827Z,13.10
2023-03-26T11:00:23.249Z,13.20
2023-03-26T11:03:10.221Z,13.10
2023-03-26T11:06:07.822Z,13.20
2023-03-26T11:09:03.972Z,13.20
2023-03-26T11:11:59.588Z,13.20
2023-03-26T11:14:54.096Z,13.10
2023-03-26T11:17:39.219Z,13.00
2023-03-26T11:20:34.096Z,13.00
2023-03-26T11:23:12.051Z,12.80
2023-03-26T11:26:17.061Z,12.80
2023-03-26T11:29:31.417Z,12.80
2023-03-26T11:32:30.456Z,12.80
2023-03-26T11:35:08.127Z,13.00
2023-03-26T11:37:41.548Z,13.00
2023-03-26T11:40:24.281Z,12.90
2023-03-26T11:42:56.807Z,12.90
2023-03-26T11:45:27.148Z,12.70
2023-03-26T11:48:10.601Z,12.70
2023-03-26T11:50:47.720Z,12.60
2023-03-26T11:53:17.744Z,12.60
2023-03-26T11:55:51.264Z,12.60
2023-03-26T11:58:53.608Z,12.50
2023-03-26T12:01:30.360Z,12.50
2023-03-26T12:04:13.521Z,12.50
2023-03-26T12:06:57.858Z,12.50
2023-03-26T12:09:25.896Z,12.50
2023-03-26T12:11:59.638Z,12.50
2023-03-26T12:14:30.188Z,12.50
2023-03-26T12:17:02.888Z,12.50
2023-03-26T12:19:40.290Z,12.50
2023-03-26T12:22:29.430Z,12.60
2023-03-26T12:25:16.068Z,12.70
2023-03-26T12:27:52.720Z,12.80
2023-03-26T12:30:37.868Z,12.90
2023-03-26T12:33:26.255Z,13.00
2023-03-26T12:35:56.196Z,13.00
2023-03-26T12:38:35.655Z,13.10
2023-03-26T12:44:43.078Z,13.30
2023-03-26T12:44:54.324Z,13.50
2023-03-26T12:47:56.162Z,13.70
2023-03-26T12:50:14.512Z,13.90
2023-03-26T12:52:52.245Z,13.90
2023-03-26T12:55:42.183Z,14.00
2023-03-26T12:58:17.794Z,14.10
2023-03-26T13:01:07.316Z,14.20
2023-03-26T13:03:51.176Z,14.20
2023-03-26T13:06:48.565Z,14.10
2023-03-26T13:09:36.588Z,14.00
2023-03-26T13:12:09.000Z,13.80
2023-03-26T13:14:47.562Z,13.60
2023-03-26T13:17:34.432Z,13.50
2023-03-26T13:20:22.308Z,13.50
2023-03-26T13:22:54.111Z,13.60
2023-03-26T13:25:32.421Z,13.80
2023-03-26T13:28:18.950Z,14.00
2023-03-26T13:30:55.110Z,14.00
2023-03-26T13:33:22.065Z,13.90
2023-03-26T13:36:00.246Z,13.80
2023-03-26T13:39:13.444Z,13.80
2023-03-26T13:42:08.497Z,13.90
2023-03-26T13:44:48.066Z,13.90
2023-03-26T13:47:24.058Z,13.80
2023-03-26T13:50:31.490Z,13.80
2023-03-26T13:53:17.866Z,14.00
2023-03-26T13:55:54.339Z,14.40
2023-03-26T13:58:47.347Z,14.60
2023-03-26T14:01:19.409Z,14.60
2023-03-26T14:03:55.397Z,14.40
2023-03-26T14:06:31.860Z,14.20
2023-03-26T14:09:05.436Z,14.00
2023-03-26T14:11:50.343Z,13.90
2023-03-26T14:14:26.513Z,13.90
2023-03-26T14:17:03.515Z,14.00
2023-03-26T14:20:09.861Z,13.90
2023-03-26T14:22:55.573Z,13.90
2023-03-26T14:25:22.239Z,13.80
2023-03-26T14:28:16.129Z,13.70
2023-03-26T14:31:03.649Z,13.60
2023-03-26T14:33:43.701Z,13.50
2023-03-26T14:36:35.844Z,13.40
2023-03-26T14:39:30.543Z,13.40
2023-03-26T14:42:17.794Z,13.40
2023-03-26T14:45:26.827Z,13.50
2023-03-26T14:48:09.920Z,13.50
2023-03-26T14:50:46.661Z,13.50
2023-03-26T14:53:25.517Z,13.50
2023-03-26T14:56:11.662Z,13.40
2023-03-26T14:59:11.150Z,13.40
2023-03-26T15:02:09.397Z,13.40
2023-03-26T15:04:54.374Z,13.40
2023-03-26T15:07:48.989Z,13.30
2023-03-26T15:10:47.090Z,13.20
2023-03-26T15:13:51.698Z,13.10
2023-03-26T15:16:56.308Z,13.10
2023-03-26T15:19:56.292Z,13.00
2023-03-26T15:22:41.905Z,12.90
2023-03-26T15:25:36.515Z,12.90
2023-03-26T15:28:31.761Z,12.90
2023-03-26T15:31:09.678Z,13.00
2023-03-26T15:33:54.491Z,13.10
2023-03-26T15:37:17.616Z,13.30
2023-03-26T15:40:21.992Z,13.40
2023-03-26T15:42:51.517Z,13.40
2023-03-26T15:45:57.354Z,13.40
2023-03-26T15:48:45.550Z,13.40
2023-03-26T15:51:47.105Z,13.30
2023-03-26T15:54:25.245Z,13.10
2023-03-26T15:57:07.220Z,12.90
2023-03-26T15:59:55.976Z,12.90
2023-03-26T16:02:54.552Z,12.80
2023-03-26T16:05:35.473Z,12.80
2023-03-26T16:08:14.722Z,12.70
2023-03-26T16:10:58.790Z,12.70
2023-03-26T16:13:40.147Z,12.70
2023-03-26T16:16:16.061Z,12.50
2023-03-26T16:18:59.449Z,12.40
2023-03-26T16:21:34.282Z,12.30
2023-03-26T16:24:07.260Z,12.20
2023-03-26T16:26:55.386Z,12.20
2023-03-26T16:29:28.610Z,12.20
2023-03-26T16:32:11.180Z,12.20
2023-03-26T16:34:58.342Z,12.20
2023-03-26T16:37:51.664Z,12.20
2023-03-26T16:40:18.614Z,12.00
2023-03-26T16:43:03.279Z,12.00
2023-03-26T16:45:49.540Z,11.90
2023-03-26T16:48:34.219Z,11.80
2023-03-26T16:51:19.644Z,11.90
2023-03-26T16:54:09.466Z,11.90
2023-03-26T16:57:11.272Z,11.90
2023-03-26T17:00:05.753Z,11.80
2023-03-26T17:02:47.934Z,11.80
2023-03-26T17:05:37.290Z,11.70
2023-03-26T17:08:17.817Z,11.70
2023-03-26T17:11:19.579Z,11.70
2023-03-26T17:14:03.490Z,11.80
2023-03-26T17:16:39.120Z,11.70
2023-03-26T17:19:41.829Z,11.60
2023-03-26T17:22:33.754Z,11.50
2023-03-26T17:25:32.333Z,11.50
2023-03-26T17:28:22.643Z,11.40
2023-03-26T17:31:18.632Z,11.40
2023-03-26T17:33:45.662Z,11.30
2023-03-26T17:36:12.525Z,11.20
2023-03-26T17:38:39.433Z,11.20
2023-03-26T17:41:08.180Z,11.20
2023-03-26T17:43:52.124Z,11.20
2023-03-26T17:46:40.557Z,11.20
2023-03-26T17:49:13.804Z,11.20
2023-03-26T17:52:05.203Z,11.10
2023-03-26T17:54:45.278Z,11.10
2023-03-26T17:57:26.929Z,11.10
2023-03-26T17:59:58.578Z,11.20
2023-03-26T18:03:11.142Z,11.00
2023-03-26T18:05:39.515Z,11.00
2023-03-26T18:08:32.074Z,11.00
2023-03-26T18:11:20.576Z,10.90
2023-03-26T18:14:34.437Z,10.90
2023-03-26T18:17:02.195Z,10.80
2023-03-26T18:19:29.336Z,10.70
2023-03-26T18:22:05.306Z,10.60
2023-03-26T18:24:40.229Z,10.50
2023-03-26T18:27:28.955Z,10.40
2023-03-26T18:30:03.130Z,10.30
2023-03-26T18:32:33.533Z,10.30
2023-03-26T18:35:13.528Z,10.40
2023-03-26T18:37:44.041Z,10.40
2023-03-26T18:40:18.901Z,10.40
2023-03-26T18:42:55.714Z,10.50
2023-03-26T18:45:34.244Z,10.60
2023-03-26T18:48:04.802Z,10.60
2023-03-26T18:50:38.794Z,10.60
2023-03-26T18:53:08.803Z,10.60
2023-03-26T18:55:39.567Z,10.60
2023-03-26T18:58:28.329Z,10.60
2023-03-26T19:00:59.430Z,10.70
2023-03-26T19:03:28.688Z,10.70
2023-03-26T19:05:57.066Z,10.70
2023-03-26T19:08:25.379Z,10.70
2023-03-26T19:10:54.456Z,10.60
2023-03-26T19:13:21.699Z,10.50
2023-03-26T19:15:51.868Z,10.40
2023-03-26T19:18:28.233Z,10.30
2023-03-26T19:20:58.808Z,10.20
2023-03-26T19:23:31.729Z,10.20
2023-03-26T19:26:01.698Z,10.10
2023-03-26T19:28:41.731Z,10.20
2023-03-26T19:31:29.267Z,10.30
2023-03-26T19:34:17.667Z,10.30
2023-03-26T19:36:59.411Z,10.30
2023-03-26T19:39:38.691Z,10.40
2023-03-26T19:42:06.761Z,10.50
2023-03-26T19:44:39.443Z,10.40
2023-03-26T19:47:16.097Z,10.30
2023-03-26T19:49:56.093Z,10.20
2023-03-26T19:52:32.865Z,10.10
2023-03-26T19:55:02.691Z,10.00
2023-03-26T19:57:31.926Z,10.00
2023-03-26T19:59:59.832Z,9.90
2023-03-26T20:02:27.532Z,9.90
2023-03-26T20:04:54.429Z,9.90
2023-03-26T20:07:35.949Z,9.80
2023-03-26T20:10:05.606Z,9.80
2023-03-26T20:12:32.905Z,9.70
2023-03-26T20:15:00.698Z,9.70
2023-03-26T20:17:30.966Z,9.70
2023-03-26T20:19:57.884Z,9.70
2023-03-26T20:22:25.152Z,9.70
2023-03-26T20:24:52.066Z,9.70
2023-03-26T20:27:19.308Z,9.70
2023-03-26T20:29:46.466Z,9.80
2023-03-26T20:32:23.614Z,9.80
2023-03-26T20:34:52.237Z,9.80
2023-03-26T20:37:20.054Z,9.80
2023-03-26T20:39:46.870Z,9.80
2023-03-26T20:42:15.805Z,9.80
2023-03-26T20:44:43.082Z,9.80
2023-03-26T20:47:11.347Z,9.80
2023-03-26T20:49:38.401Z,9.80
2023-03-26T20:52:05.352Z,9.80
2023-03-26T20:54:32.187Z,9.80
2023-03-26T20:56:58.953Z,9.80
2023-03-26T20:59:27.580Z,9.80
2023-03-26T21:01:56.997Z,9.80
2023-03-26T21:04:24.809Z,9.80
2023-03-26T21:06:53.351Z,9.70
2023-03-26T21:09:24.108Z,9.70
2023-03-26T21:11:56.989Z,9.70
2023-03-26T21:14:43.812Z,9.60
2023-03-26T21:17:19.983Z,9.60
2023-03-26T21:19:47.646Z,9.50
2023-03-26T21:22:44.731Z,9.50
2023-03-26T21:25:32.012Z,9.50
2023-03-26T21:28:39.447Z,9.40
2023-03-26T21:31:18.463Z,9.40
2023-03-26T21:33:46.508Z,9.40
2023-03-26T21:36:14.188Z,9.40
2023-03-26T21:38:45.473Z,9.30
2023-03-26T21:41:24.300Z,9.30
2023-03-26T21:43:51.706Z,9.20
2023-03-26T21:46:19.300Z,9.30
2023-03-26T21:48:46.314Z,9.20
2023-03-26T21:51:14.862Z,9.20
2023-03-26T21:53:42.906Z,9.10
2023-03-26T21:56:38.136Z,9.10
2023-03-26T21:59:23.647Z,9.10
2023-03-26T22:02:09.229Z,9.10
2023-03-26T22:05:02.127Z,9.10
2023-03-26T22:07:52.175Z,9.00
2023-03-26T22:10:19.261Z,9.10
2023-03-26T22:12:46.103Z,9.20
2023-03-26T22:15:13.865Z,9.20
2023-03-26T22:17:41.941Z,9.30
2023-03-26T22:20:10.618Z,9.40
2023-03-26T22:22:37.396Z,9.40
2023-03-26T22:25:05.402Z,9.50
2023-03-26T22:27:32.232Z,9.60
2023-03-26T22:30:11.701Z,9.60
2023-03-26T22:32:38.878Z,9.70
2023-03-26T22:35:06.941Z,9.70
2023-03-26T22:37:35.531Z,9.70
2023-03-26T22:40:04.388Z,9.60
2023-03-26T22:42:31.488Z,9.60
2023-03-26T22:44:58.199Z,9.60
2023-03-26T22:47:25.026Z,9.60
2023-03-26T22:49:51.904Z,9.50
2023-03-26T22:52:18.659Z,9.50
2023-03-26T22:54:45.409Z,9.40
2023-03-26T22:57:12.485Z,9.40
2023-03-26T22:59:39.200Z,9.30
2023-03-26T23:02:07.200Z,9.20
2023-03-26T23:04:34.019Z,9.20
2023-03-26T23:07:00.872Z,9.20
2023-03-26T23:09:27.660Z,9.10
2023-03-26T23:11:54.415Z,9.10
2023-03-26T23:14:21.761Z,9.10
2023-03-26T23:16:48.659Z,9.10
2023-03-26T23:19:15.772Z,9.00
2023-03-26T23:21:42.522Z,9.10
2023-03-26T23:24:09.408Z,9.20
2023-03-26T23:26:49.601Z,9.40
2023-03-26T23:29:18.310Z,9.40
2023-03-26T23:31:45.091Z,9.50
2023-03-26T23:34:13.537Z,9.60
2023-03-26T23:36:41.686Z,9.60
2023-03-26T23:39:10.774Z,9.60
2023-03-26T23:41:38.225Z,9.60
2023-03-26T23:44:05.099Z,9.70
2023-03-26T23:46:34.745Z,9.70
2023-03-26T23:49:04.374Z,9.80
2023-03-26T23:51:32.582Z,9.80
2023-03-26T23:54:00.279Z,9.80
2023-03-26T23:56:30.379Z,9.70
2023-03-26T23:58:58.090Z,9.70
